Time;durP1;ratioP1;P1;durP2;ratioP2;P2;SDS_P1;SDS_P2;PMS_P1;PMS_P2;Temp;Humidity;BMP_temperature;BMP_pressure;BME280_temperature;BME280_humidity;BME280_pressure;Samples;Min_cycle;Max_cycle;Signal;HPM_P1;HPM_P2
2022/03/04 00:01:46;;;;;;;34.75;15.63;;;2.10;99.90;;;;;;5051064;28;20213;-74
2022/03/04 00:04:14;;;;;;;19.98;14.07;;;2.00;99.90;;;;;;5055444;28;20206;-72
2022/03/04 00:06:40;;;;;;;25.85;14.07;;;2.00;99.90;;;;;;5051862;28;20685;-75
2022/03/04 00:09:10;;;;;;;32.25;17.63;;;2.00;99.90;;;;;;5055397;28;20282;-73
2022/03/04 00:11:37;;;;;;;27.27;15.35;;;2.00;99.90;;;;;;5054649;28;20227;-74
2022/03/04 00:14:04;;;;;;;26.85;14.25;;;2.00;99.90;;;;;;5055289;28;20192;-74
2022/03/04 00:16:31;;;;;;;28.38;12.90;;;2.00;99.90;;;;;;5054762;28;20208;-73
2022/03/04 00:19:09;;;;;;;22.75;14.77;;;2.00;99.90;;;;;;5055196;28;20257;-74
2022/03/04 00:21:37;;;;;;;26.67;14.52;;;2.10;99.90;;;;;;5053515;28;20221;-74
2022/03/04 00:24:05;;;;;;;29.48;16.25;;;1.90;99.90;;;;;;5047058;28;20218;-72
2022/03/04 00:26:34;;;;;;;31.33;17.67;;;1.90;99.90;;;;;;5055026;28;20207;-74
2022/03/04 00:29:01;;;;;;;29.35;15.40;;;1.90;99.90;;;;;;5055145;28;20557;-74
2022/03/04 00:31:29;;;;;;;26.50;14.70;;;1.90;99.90;;;;;;5053840;28;20314;-73
2022/03/04 00:33:55;;;;;;;30.45;16.88;;;1.80;99.90;;;;;;5060764;28;20279;-73
2022/03/04 00:36:23;;;;;;;25.13;14.90;;;1.80;99.90;;;;;;5050314;28;20204;-76
2022/03/04 00:38:50;;;;;;;25.88;13.95;;;1.90;99.90;;;;;;5054742;28;20273;-74
2022/03/04 00:41:18;;;;;;;29.48;15.82;;;2.00;99.90;;;;;;5054181;28;20221;-72
2022/03/04 00:43:47;;;;;;;27.90;16.58;;;2.10;99.90;;;;;;5054967;28;20225;-74
2022/03/04 00:46:15;;;;;;;29.73;15.45;;;2.10;99.90;;;;;;5055166;28;20711;-73
2022/03/04 00:48:42;;;;;;;33.53;17.77;;;2.10;99.90;;;;;;5054502;28;20235;-73
2022/03/04 00:51:09;;;;;;;23.73;15.15;;;2.10;99.90;;;;;;5054010;28;20586;-72
2022/03/04 00:53:37;;;;;;;30.08;15.40;;;2.10;99.90;;;;;;5053376;28;20665;-74
2022/03/04 00:56:06;;;;;;;24.70;13.75;;;2.20;99.90;;;;;;5054318;28;20238;-74
2022/03/04 00:58:34;;;;;;;27.55;14.73;;;2.20;99.90;;;;;;5053791;28;20330;-75
2022/03/04 01:01:02;;;;;;;29.75;16.25;;;2.30;99.90;;;;;;5053727;28;20297;-72
2022/03/04 01:03:29;;;;;;;27.65;14.10;;;2.30;99.90;;;;;;5054323;28;20203;-73
2022/03/04 01:05:57;;;;;;;27.10;15.93;;;2.30;99.90;;;;;;5054529;28;20290;-73
2022/03/04 01:08:23;;;;;;;26.35;15.02;;;2.40;99.90;;;;;;5053916;28;20690;-75
2022/03/04 01:10:53;;;;;;;26.05;14.10;;;2.40;99.90;;;;;;5045209;28;20254;-72
2022/03/04 01:13:21;;;;;;;30.63;16.35;;;2.40;99.90;;;;;;5053688;28;20203;-72
2022/03/04 01:15:48;;;;;;;24.52;15.23;;;2.40;99.90;;;;;;5054325;28;20207;-71
2022/03/04 01:18:17;;;;;;;29.23;16.15;;;2.40;99.90;;;;;;5054217;28;20278;-73
2022/03/04 01:20:50;;;;;;;28.83;16.52;;;2.40;99.90;;;;;;5053386;28;20614;-73
2022/03/04 01:23:16;;;;;;;28.90;14.57;;;2.40;99.90;;;;;;5053261;28;20207;-72
2022/03/04 01:25:43;;;;;;;23.30;14.55;;;2.40;99.90;;;;;;5054866;28;20336;-71
2022/03/04 01:28:10;;;;;;;30.98;16.35;;;2.40;99.90;;;;;;5054160;28;20218;-73
2022/03/04 01:30:37;;;;;;;27.75;14.82;;;2.30;99.90;;;;;;5053393;28;20306;-72
2022/03/04 01:33:04;;;;;;;28.48;14.98;;;2.30;99.90;;;;;;5054226;28;20200;-72
2022/03/04 01:35:33;;;;;;;29.35;15.38;;;2.30;99.90;;;;;;5053974;28;20286;-73
2022/03/04 01:38:00;;;;;;;30.13;15.13;;;2.30;99.90;;;;;;5053306;28;20202;-72
2022/03/04 01:40:27;;;;;;;24.48;16.58;;;2.30;99.90;;;;;;5053162;28;20286;-73
2022/03/04 01:42:54;;;;;;;23.25;15.00;;;2.30;99.90;;;;;;5053544;28;20587;-74
2022/03/04 01:45:22;;;;;;;33.30;18.48;;;2.30;99.90;;;;;;5053544;28;20231;-72
2022/03/04 01:47:49;;;;;;;23.95;15.10;;;2.30;99.90;;;;;;5055611;28;20216;-72
2022/03/04 01:50:24;;;;;;;26.67;15.63;;;2.30;99.90;;;;;;5053655;28;20210;-73
2022/03/04 01:52:52;;;;;;;31.25;16.80;;;2.30;99.90;;;;;;5051013;28;20233;-74
2022/03/04 01:55:20;;;;;;;31.88;16.15;;;2.20;99.90;;;;;;5053464;28;20557;-72
2022/03/04 01:57:47;;;;;;;29.40;16.58;;;2.20;99.90;;;;;;5053770;28;20238;-73
2022/03/04 02:00:15;;;;;;;29.23;16.88;;;2.10;99.90;;;;;;5052704;28;20217;-72
2022/03/04 02:02:43;;;;;;;27.45;16.73;;;2.10;99.90;;;;;;5053065;28;20212;-73
2022/03/04 02:05:13;;;;;;;30.13;15.95;;;2.10;99.90;;;;;;5053122;28;20303;-75
2022/03/04 02:07:40;;;;;;;31.23;17.85;;;2.00;99.90;;;;;;5045184;28;20220;-71
2022/03/04 02:10:11;;;;;;;30.38;16.73;;;2.00;99.90;;;;;;5052523;28;20210;-74
2022/03/04 02:12:39;;;;;;;27.48;14.82;;;2.00;99.90;;;;;;5052678;28;20233;-73
2022/03/04 02:15:07;;;;;;;31.38;16.70;;;2.00;99.90;;;;;;5053679;28;20558;-72
2022/03/04 02:17:34;;;;;;;29.35;16.70;;;2.00;99.90;;;;;;5052991;28;20201;-75
2022/03/04 02:20:03;;;;;;;26.75;14.98;;;2.00;99.90;;;;;;5052645;28;20210;-75
2022/03/04 02:22:31;;;;;;;27.08;16.30;;;2.00;99.90;;;;;;5052549;28;20215;-72
2022/03/04 02:24:58;;;;;;;23.42;13.55;;;1.90;99.90;;;;;;5053452;28;20217;-75
2022/03/04 02:27:25;;;;;;;32.08;17.45;;;2.00;99.90;;;;;;5059494;28;20200;-72
2022/03/04 02:29:52;;;;;;;28.77;16.33;;;2.00;99.90;;;;;;5056200;28;20203;-74
2022/03/04 02:32:19;;;;;;;27.20;13.90;;;2.00;99.90;;;;;;5059051;28;20291;-73
2022/03/04 02:34:47;;;;;;;19.88;14.60;;;2.00;99.90;;;;;;5061747;28;20211;-75
2022/03/04 02:37:14;;;;;;;24.10;15.27;;;2.10;99.90;;;;;;5057414;28;20191;-72
2022/03/04 02:39:43;;;;;;;24.35;15.30;;;2.10;99.90;;;;;;5057063;28;20278;-74
2022/03/04 02:42:10;;;;;;;26.23;15.57;;;2.20;99.90;;;;;;5057089;28;20239;-74
2022/03/04 02:44:37;;;;;;;26.67;16.27;;;2.20;99.90;;;;;;5056909;28;20192;-71
2022/03/04 02:47:05;;;;;;;25.23;16.88;;;2.10;99.90;;;;;;5057211;28;20661;-73
2022/03/04 02:49:32;;;;;;;27.77;16.02;;;2.20;99.90;;;;;;5056658;28;20235;-76
2022/03/04 02:51:59;;;;;;;30.25;17.40;;;2.20;99.90;;;;;;5056526;28;20234;-73
2022/03/04 02:54:26;;;;;;;21.92;13.48;;;2.20;99.90;;;;;;5056584;28;20286;-72
2022/03/04 02:56:56;;;;;;;28.83;15.25;;;2.20;99.90;;;;;;5056843;28;20198;-71
2022/03/04 02:59:23;;;;;;;24.08;13.60;;;2.10;99.90;;;;;;5056342;28;20262;-72
2022/03/04 03:01:50;;;;;;;25.58;14.57;;;2.10;99.90;;;;;;5057773;28;20255;-74
2022/03/04 03:04:18;;;;;;;28.10;16.17;;;2.00;99.90;;;;;;5058896;28;20213;-75
2022/03/04 03:06:45;;;;;;;26.50;15.95;;;2.00;99.90;;;;;;5052862;28;20698;-72
2022/03/04 03:09:12;;;;;;;24.85;13.63;;;2.00;99.90;;;;;;5057428;28;20223;-72
2022/03/04 03:11:39;;;;;;;22.88;12.50;;;2.00;99.90;;;;;;5052851;28;20314;-73
2022/03/04 03:14:07;;;;;;;23.88;13.63;;;1.90;99.90;;;;;;5056543;28;20242;-74
2022/03/04 03:16:34;;;;;;;27.42;16.05;;;1.90;99.90;;;;;;5056446;28;20227;-71
2022/03/04 03:19:01;;;;;;;24.13;13.88;;;1.90;99.90;;;;;;5055775;28;20208;-71
2022/03/04 03:21:28;;;;;;;22.48;14.23;;;2.10;99.90;;;;;;5055831;28;20221;-73
2022/03/04 03:23:55;;;;;;;26.45;13.32;;;1.90;99.90;;;;;;5056060;28;20253;-72
2022/03/04 03:26:23;;;;;;;20.48;13.45;;;1.90;99.90;;;;;;5055304;28;20200;-71
2022/03/04 03:28:50;;;;;;;26.13;13.85;;;1.80;99.90;;;;;;5056575;28;20207;-72
2022/03/04 03:31:18;;;;;;;32.60;15.13;;;1.80;99.90;;;;;;5055681;28;20331;-72
2022/03/04 03:33:45;;;;;;;32.28;15.95;;;1.80;99.90;;;;;;5055149;28;20218;-73
2022/03/04 03:36:12;;;;;;;30.38;14.10;;;1.80;99.90;;;;;;5057331;28;20295;-75
2022/03/04 03:38:40;;;;;;;26.02;14.90;;;1.90;99.90;;;;;;5055594;28;20208;-73
2022/03/04 03:41:06;;;;;;;20.77;12.90;;;1.80;99.90;;;;;;5054994;28;20302;-73
2022/03/04 03:43:33;;;;;;;23.20;14.13;;;1.80;99.90;;;;;;5060053;28;20199;-71
2022/03/04 03:46:00;;;;;;;28.15;14.80;;;1.80;99.90;;;;;;5055638;28;20200;-72
2022/03/04 03:48:29;;;;;;;22.00;13.57;;;1.80;99.90;;;;;;5055476;28;20684;-72
2022/03/04 03:50:55;;;;;;;18.63;13.43;;;1.80;99.90;;;;;;5054693;28;20198;-74
2022/03/04 03:53:22;;;;;;;28.23;14.75;;;1.90;99.90;;;;;;5050601;28;20238;-72
2022/03/04 03:55:49;;;;;;;24.45;13.57;;;1.70;99.90;;;;;;5055636;28;20294;-73
2022/03/04 03:58:16;;;;;;;29.30;15.50;;;1.70;99.90;;;;;;5055856;28;20239;-73
2022/03/04 04:00:43;;;;;;;27.45;14.25;;;1.60;99.90;;;;;;5054339;28;20278;-71
2022/03/04 04:03:10;;;;;;;31.00;16.02;;;1.60;99.90;;;;;;5055927;28;20206;-72
2022/03/04 04:05:38;;;;;;;26.83;14.65;;;1.60;99.90;;;;;;5056013;28;20246;-74
2022/03/04 04:08:05;;;;;;;21.92;13.73;;;1.60;99.90;;;;;;5046834;28;20200;-75
2022/03/04 04:10:32;;;;;;;26.75;14.88;;;1.60;99.90;;;;;;5054346;28;20203;-75
2022/03/04 04:12:59;;;;;;;24.23;15.48;;;1.50;99.90;;;;;;5055563;28;20582;-74
2022/03/04 04:15:26;;;;;;;27.88;14.93;;;1.50;99.90;;;;;;5056346;28;20203;-74
2022/03/04 04:17:54;;;;;;;25.98;14.88;;;1.50;99.90;;;;;;5057467;28;20642;-73
2022/03/04 04:20:21;;;;;;;31.15;14.85;;;1.50;99.90;;;;;;5057565;28;20287;-72
2022/03/04 04:22:49;;;;;;;28.08;14.70;;;1.50;99.90;;;;;;5058532;28;20220;-73
2022/03/04 04:25:16;;;;;;;29.80;14.13;;;1.40;99.90;;;;;;5054176;28;20204;-75
2022/03/04 04:27:43;;;;;;;33.65;15.88;;;1.50;99.90;;;;;;5054766;28;20299;-73
2022/03/04 04:30:11;;;;;;;26.98;14.82;;;1.50;99.90;;;;;;5054029;28;20205;-72
2022/03/04 04:32:38;;;;;;;28.73;16.42;;;1.50;99.90;;;;;;5054564;28;20259;-73
2022/03/04 04:35:06;;;;;;;21.90;12.98;;;1.50;99.90;;;;;;5054317;28;20222;-74
2022/03/04 04:37:34;;;;;;;21.83;13.35;;;1.50;99.90;;;;;;5054045;28;20205;-74
2022/03/04 04:40:04;;;;;;;27.02;15.27;;;1.50;99.90;;;;;;5053777;28;20199;-72
2022/03/04 04:42:31;;;;;;;26.15;13.73;;;1.50;99.90;;;;;;5054481;28;20666;-71
2022/03/04 04:44:58;;;;;;;29.02;16.83;;;1.50;99.90;;;;;;5054682;28;20207;-72
2022/03/04 04:47:26;;;;;;;30.42;17.08;;;1.50;99.90;;;;;;5054071;28;20223;-74
2022/03/04 04:49:53;;;;;;;26.55;16.15;;;1.40;99.90;;;;;;5053199;28;20310;-71
2022/03/04 04:52:20;;;;;;;27.73;16.10;;;1.50;99.90;;;;;;5051828;28;20274;-73
2022/03/04 04:54:47;;;;;;;28.85;15.63;;;1.60;99.90;;;;;;5053966;28;20288;-74
2022/03/04 04:57:16;;;;;;;26.45;13.40;;;1.50;99.90;;;;;;5054348;28;20199;-77
2022/03/04 04:59:43;;;;;;;26.90;13.32;;;1.50;99.90;;;;;;5053362;28;20229;-71
2022/03/04 05:02:10;;;;;;;28.52;15.40;;;1.60;99.90;;;;;;5053833;28;20228;-75
2022/03/04 05:04:36;;;;;;;23.35;14.45;;;1.50;99.90;;;;;;5054645;28;20287;-72
2022/03/04 05:07:04;;;;;;;26.50;15.15;;;1.60;99.90;;;;;;5057873;28;20298;-74
2022/03/04 05:09:31;;;;;;;23.42;12.93;;;1.40;99.90;;;;;;5050909;28;20323;-75
2022/03/04 05:12:05;;;;;;;24.23;14.18;;;1.40;99.90;;;;;;5052316;28;20294;-75
2022/03/04 05:14:33;;;;;;;25.15;15.05;;;1.40;99.90;;;;;;5053844;28;20282;-72
2022/03/04 05:17:00;;;;;;;24.77;13.77;;;1.40;99.90;;;;;;5054003;28;20198;-73
2022/03/04 05:19:27;;;;;;;25.88;14.90;;;1.40;99.90;;;;;;5052911;28;20209;-74
2022/03/04 05:21:54;;;;;;;24.73;13.05;;;1.40;99.90;;;;;;5053347;28;20215;-74
2022/03/04 05:24:21;;;;;;;29.65;14.40;;;1.40;99.90;;;;;;5054000;28;20199;-76
2022/03/04 05:26:49;;;;;;;23.48;13.00;;;1.40;99.90;;;;;;5054161;28;20278;-72
2022/03/04 05:29:16;;;;;;;23.00;13.48;;;1.40;99.90;;;;;;5053112;28;20203;-74
2022/03/04 05:31:44;;;;;;;24.13;13.40;;;1.40;99.90;;;;;;5052948;28;20227;-75
2022/03/04 05:34:12;;;;;;;21.10;12.80;;;1.40;99.90;;;;;;5053343;28;20212;-73
2022/03/04 05:36:40;;;;;;;27.17;13.50;;;1.40;99.90;;;;;;5053064;28;20235;-75
2022/03/04 05:39:07;;;;;;;24.02;13.10;;;1.50;99.90;;;;;;5053088;28;20204;-74
2022/03/04 05:41:34;;;;;;;25.73;14.02;;;1.40;99.90;;;;;;5057166;28;20223;-73
2022/03/04 05:44:01;;;;;;;27.35;13.40;;;1.40;99.90;;;;;;5055922;28;20211;-75
2022/03/04 05:46:29;;;;;;;24.58;14.95;;;1.40;99.90;;;;;;5055391;28;20266;-72
2022/03/04 05:48:57;;;;;;;21.08;13.30;;;1.40;99.90;;;;;;5053444;28;20239;-75
2022/03/04 05:51:24;;;;;;;31.23;13.65;;;1.40;99.90;;;;;;5052425;28;20227;-76
2022/03/04 05:53:51;;;;;;;25.38;16.13;;;1.60;99.90;;;;;;5051274;28;20310;-75
2022/03/04 05:56:19;;;;;;;25.55;13.90;;;1.30;99.90;;;;;;5053050;28;20200;-73
2022/03/04 05:58:46;;;;;;;21.52;12.30;;;1.30;99.90;;;;;;5053110;28;20199;-77
2022/03/04 06:01:15;;;;;;;26.67;13.38;;;1.40;99.90;;;;;;5052436;28;20227;-75
2022/03/04 06:03:43;;;;;;;21.75;12.63;;;1.40;99.90;;;;;;5052316;28;20622;-75
2022/03/04 06:06:13;;;;;;;26.02;13.48;;;1.40;99.90;;;;;;5053651;28;20694;-73
2022/03/04 06:08:40;;;;;;;27.27;15.90;;;1.40;99.90;;;;;;5053679;28;20211;-72
2022/03/04 06:11:08;;;;;;;27.92;13.68;;;1.40;99.90;;;;;;5052923;28;20302;-73
2022/03/04 06:13:35;;;;;;;24.00;12.93;;;1.50;99.90;;;;;;5045691;28;20216;-74
2022/03/04 06:16:03;;;;;;;21.23;14.00;;;1.50;99.90;;;;;;5053456;28;20204;-73
2022/03/04 06:18:30;;;;;;;20.38;12.45;;;1.50;99.90;;;;;;5052644;28;20702;-74
2022/03/04 06:20:57;;;;;;;25.30;15.18;;;1.50;99.90;;;;;;5053038;28;20201;-71
2022/03/04 06:23:25;;;;;;;21.70;12.68;;;1.60;99.90;;;;;;5057334;28;20724;-72
2022/03/04 06:25:52;;;;;;;23.10;13.38;;;1.50;99.90;;;;;;5052930;28;20311;-76
2022/03/04 06:28:19;;;;;;;23.40;13.65;;;1.60;99.90;;;;;;5052935;28;20721;-73
2022/03/04 06:30:47;;;;;;;22.17;12.25;;;1.60;99.90;;;;;;5052409;28;20235;-72
2022/03/04 06:33:32;;;;;;;56.83;18.77;;;1.60;99.90;;;;;;5053189;28;20208;-73
2022/03/04 06:36:01;;;;;;;23.77;13.32;;;1.70;99.90;;;;;;5053025;28;20199;-76
2022/03/04 06:38:31;;;;;;;29.73;16.10;;;1.80;99.90;;;;;;5044680;28;20516;-76
2022/03/04 06:40:58;;;;;;;23.45;13.15;;;1.90;99.90;;;;;;5052470;28;20214;-73
2022/03/04 06:43:26;;;;;;;21.23;12.10;;;2.00;99.90;;;;;;5052824;28;20199;-72
2022/03/04 06:45:53;;;;;;;20.65;12.23;;;2.00;99.90;;;;;;5053089;28;20207;-73
2022/03/04 06:48:21;;;;;;;17.38;11.60;;;2.10;99.90;;;;;;5052495;28;20279;-77
2022/03/04 06:50:49;;;;;;;19.55;12.40;;;2.20;99.90;;;;;;5052131;28;20295;-72
2022/03/04 06:53:16;;;;;;;20.08;12.40;;;2.30;99.90;;;;;;5052622;28;20254;-74
2022/03/04 06:55:45;;;;;;;25.90;12.23;;;2.40;99.90;;;;;;5052506;28;20236;-74
2022/03/04 06:58:12;;;;;;;17.13;10.93;;;2.50;99.90;;;;;;5052446;28;20207;-73
2022/03/04 07:00:40;;;;;;;19.17;11.70;;;2.60;99.90;;;;;;5052909;28;20207;-74
2022/03/04 07:03:08;;;;;;;18.85;11.02;;;2.70;99.90;;;;;;5047023;28;20204;-72
2022/03/04 07:05:35;;;;;;;21.63;12.18;;;2.80;99.90;;;;;;5047439;28;20272;-74
2022/03/04 07:08:03;;;;;;;17.23;11.18;;;2.80;99.90;;;;;;5052440;28;20207;-74
2022/03/04 07:10:30;;;;;;;17.00;10.98;;;2.90;99.90;;;;;;5051881;28;20665;-73
2022/03/04 07:12:58;;;;;;;19.30;10.98;;;2.90;99.90;;;;;;5055550;28;20224;-75
2022/03/04 07:15:25;;;;;;;19.77;12.32;;;3.00;99.90;;;;;;5055684;28;20234;-72
2022/03/04 07:17:52;;;;;;;21.30;12.40;;;3.00;99.90;;;;;;5056148;28;20210;-73
2022/03/04 07:20:19;;;;;;;18.92;11.93;;;3.00;99.90;;;;;;5055610;28;20667;-74
2022/03/04 07:22:47;;;;;;;22.52;13.60;;;3.00;99.90;;;;;;5055190;28;20222;-74
2022/03/04 07:25:15;;;;;;;17.80;11.27;;;3.10;99.90;;;;;;5056042;28;20211;-75
2022/03/04 07:27:42;;;;;;;19.30;10.48;;;3.20;99.90;;;;;;5055224;28;20199;-74
2022/03/04 07:30:14;;;;;;;21.45;12.30;;;3.30;99.90;;;;;;5054909;28;20299;-74
2022/03/04 07:32:42;;;;;;;24.33;12.90;;;3.40;99.90;;;;;;5054910;28;20224;-75
2022/03/04 07:35:11;;;;;;;20.45;12.05;;;3.40;99.90;;;;;;5055264;28;20571;-74
2022/03/04 07:37:39;;;;;;;15.38;9.80;;;3.40;99.90;;;;;;5050043;28;20654;-72
2022/03/04 07:40:08;;;;;;;17.63;10.32;;;3.30;99.90;;;;;;5059730;28;20216;-74
2022/03/04 07:42:35;;;;;;;20.98;10.77;;;3.30;99.90;;;;;;5053826;28;20311;-75
2022/03/04 07:45:02;;;;;;;22.98;11.07;;;3.20;99.90;;;;;;5050450;28;20282;-73
2022/03/04 07:47:31;;;;;;;18.58;12.02;;;3.20;99.90;;;;;;5055714;28;20218;-77
2022/03/04 07:49:58;;;;;;;21.05;11.88;;;3.10;99.90;;;;;;5054889;28;20302;-74
2022/03/04 07:52:31;;;;;;;22.13;12.20;;;3.20;99.90;;;;;;5055305;28;20231;-73
2022/03/04 07:54:59;;;;;;;20.55;11.60;;;3.10;99.90;;;;;;5054551;28;20204;-71
2022/03/04 07:57:26;;;;;;;18.58;11.57;;;3.20;99.90;;;;;;5054302;28;20553;-70
2022/03/04 07:59:53;;;;;;;19.73;12.90;;;3.30;99.90;;;;;;5057452;28;20206;-72
2022/03/04 08:02:20;;;;;;;18.35;11.57;;;3.30;99.90;;;;;;5055184;28;20223;-72
2022/03/04 08:04:48;;;;;;;20.67;10.60;;;3.40;99.90;;;;;;5054744;28;20223;-74
2022/03/04 08:07:17;;;;;;;21.60;9.95;;;3.50;99.90;;;;;;5054500;28;20659;-71
2022/03/04 08:09:44;;;;;;;14.48;10.75;;;3.40;99.90;;;;;;5054244;28;20203;-73
2022/03/04 08:12:12;;;;;;;22.58;10.00;;;3.50;99.90;;;;;;5054649;28;20591;-73
2022/03/04 08:14:39;;;;;;;16.70;9.80;;;3.60;99.90;;;;;;5054588;28;20306;-73
2022/03/04 08:17:06;;;;;;;16.83;11.32;;;3.70;99.90;;;;;;5054650;28;20214;-75
2022/03/04 08:19:35;;;;;;;13.55;9.63;;;3.90;99.90;;;;;;5055741;28;20200;-74
2022/03/04 08:22:04;;;;;;;14.73;9.45;;;4.00;99.90;;;;;;5053736;28;20637;-74
2022/03/04 08:24:31;;;;;;;19.20;11.82;;;4.20;99.90;;;;;;5046528;28;20200;-72
2022/03/04 08:26:58;;;;;;;24.55;13.35;;;4.20;99.90;;;;;;5053695;28;20212;-73
2022/03/04 08:29:25;;;;;;;17.77;11.35;;;4.30;99.90;;;;;;5054277;28;20281;-73
2022/03/04 08:31:52;;;;;;;18.58;10.35;;;4.40;99.90;;;;;;5053707;28;20715;-75
2022/03/04 08:34:19;;;;;;;15.23;9.55;;;4.30;99.90;;;;;;5054039;28;20227;-73
2022/03/04 08:36:49;;;;;;;13.05;9.18;;;4.20;99.90;;;;;;5053909;28;20666;-73
2022/03/04 08:39:17;;;;;;;23.17;10.80;;;4.00;99.90;;;;;;5054255;28;20215;-72
2022/03/04 08:41:44;;;;;;;16.73;10.20;;;3.90;99.90;;;;;;5053169;28;20762;-71
2022/03/04 08:44:11;;;;;;;16.63;10.98;;;3.90;99.90;;;;;;5054297;28;20245;-72
2022/03/04 08:46:38;;;;;;;19.83;9.80;;;4.00;99.90;;;;;;5054037;28;20282;-71
2022/03/04 08:49:05;;;;;;;18.60;10.25;;;4.00;99.90;;;;;;5053724;28;20257;-73
2022/03/04 08:51:32;;;;;;;15.88;10.40;;;4.10;99.90;;;;;;5044731;28;20219;-75
2022/03/04 08:53:59;;;;;;;22.77;10.52;;;4.10;99.90;;;;;;5053850;28;20221;-76
2022/03/04 08:56:28;;;;;;;17.45;10.38;;;4.20;99.90;;;;;;5054445;28;20204;-71
2022/03/04 08:58:55;;;;;;;15.73;10.70;;;4.30;99.90;;;;;;5055243;28;20207;-75
2022/03/04 09:01:22;;;;;;;18.40;11.80;;;4.40;99.90;;;;;;5052839;28;20246;-74
2022/03/04 09:03:48;;;;;;;20.88;11.07;;;4.40;99.90;;;;;;5053542;28;20198;-73
2022/03/04 09:06:15;;;;;;;22.23;11.10;;;4.30;99.90;;;;;;5053964;28;20294;-74
2022/03/04 09:08:42;;;;;;;16.08;9.15;;;4.30;99.90;;;;;;5053590;28;20585;-73
2022/03/04 09:11:09;;;;;;;24.85;11.25;;;4.20;99.90;;;;;;5053206;28;20315;-73
2022/03/04 09:13:37;;;;;;;16.02;10.55;;;4.20;99.90;;;;;;5053447;28;20222;-72
2022/03/04 09:16:05;;;;;;;19.45;10.65;;;4.20;99.90;;;;;;5052778;28;20276;-75
2022/03/04 09:18:32;;;;;;;23.33;10.82;;;4.30;99.90;;;;;;5053640;28;20200;-75
2022/03/04 09:20:59;;;;;;;15.68;9.60;;;4.40;99.90;;;;;;5044608;28;20206;-73
2022/03/04 09:23:26;;;;;;;12.65;9.23;;;4.50;99.90;;;;;;5053213;28;20215;-71
2022/03/04 09:25:53;;;;;;;15.55;9.65;;;4.60;99.90;;;;;;5053250;28;20223;-75
2022/03/04 09:28:20;;;;;;;16.02;10.63;;;4.60;99.90;;;;;;5046265;28;20208;-71
2022/03/04 09:30:48;;;;;;;17.23;9.50;;;4.60;99.90;;;;;;5050777;28;20667;-75
2022/03/04 09:33:15;;;;;;;21.60;9.35;;;4.70;99.90;;;;;;5053322;28;20218;-76
2022/03/04 09:35:42;;;;;;;11.85;8.70;;;4.60;99.90;;;;;;5053109;28;20278;-74
2022/03/04 09:38:11;;;;;;;13.68;9.13;;;4.60;99.90;;;;;;5053997;28;20208;-71
2022/03/04 09:40:39;;;;;;;16.55;9.70;;;4.60;99.90;;;;;;5043656;28;20237;-72
2022/03/04 09:43:07;;;;;;;20.33;10.75;;;4.70;99.90;;;;;;5059013;28;20200;-74
2022/03/04 09:45:34;;;;;;;12.93;9.48;;;4.70;99.90;;;;;;5060891;28;20208;-71
2022/03/04 09:48:04;;;;;;;15.32;8.63;;;4.70;99.90;;;;;;5058851;28;20286;-73
2022/03/04 09:50:34;;;;;;;15.40;8.05;;;4.70;99.90;;;;;;5053312;28;20658;-71
2022/03/04 09:53:08;;;;;;;14.10;9.57;;;4.70;99.90;;;;;;5051739;28;20306;-75
2022/03/04 09:55:35;;;;;;;15.82;8.93;;;4.70;99.90;;;;;;5053475;28;20195;-70
2022/03/04 09:58:02;;;;;;;21.80;10.68;;;4.50;99.90;;;;;;5052308;28;20583;-72
2022/03/04 10:00:29;;;;;;;15.07;9.02;;;4.50;99.90;;;;;;5050733;28;20265;-70
2022/03/04 10:02:56;;;;;;;13.20;7.93;;;4.60;99.90;;;;;;5052701;28;20306;-71
2022/03/04 10:05:25;;;;;;;16.23;10.10;;;4.70;99.90;;;;;;5052813;28;20257;-73
2022/03/04 10:07:52;;;;;;;15.10;9.93;;;4.70;99.90;;;;;;5052074;28;20246;-74
2022/03/04 10:10:22;;;;;;;17.67;9.10;;;4.90;99.90;;;;;;5052301;28;20311;-73
2022/03/04 10:12:51;;;;;;;15.95;9.63;;;5.10;99.90;;;;;;5052621;28;20227;-72
2022/03/04 10:15:20;;;;;;;12.45;6.53;;;5.30;99.90;;;;;;5054671;28;20315;-73
2022/03/04 10:17:59;;;;;;;14.35;8.52;;;5.50;99.90;;;;;;5052596;28;20246;-73
2022/03/04 10:20:39;;;;;;;15.32;8.07;;;5.70;99.90;;;;;;5052143;28;20208;-73
2022/03/04 10:23:18;;;;;;;17.58;11.45;;;5.80;99.90;;;;;;5045182;28;20207;-70
2022/03/04 10:25:47;;;;;;;10.07;7.50;;;5.70;99.90;;;;;;5052373;28;20205;-74
2022/03/04 10:28:15;;;;;;;13.25;7.90;;;5.80;99.90;;;;;;5052897;28;20245;-73
2022/03/04 10:30:47;;;;;;;11.60;7.82;;;5.80;99.90;;;;;;5051899;28;20261;-75
2022/03/04 10:33:16;;;;;;;15.07;8.18;;;5.70;99.90;;;;;;5052444;28;20209;-73
2022/03/04 10:35:45;;;;;;;13.90;7.63;;;5.70;99.90;;;;;;5052680;28;20597;-72
2022/03/04 10:38:21;;;;;;;13.18;7.95;;;5.60;99.90;;;;;;5052731;28;20239;-72
2022/03/04 10:40:48;;;;;;;11.02;6.95;;;6.20;99.90;;;;;;5049613;28;20201;-73
2022/03/04 10:43:23;;;;;;;13.32;7.68;;;7.10;99.90;;;;;;5051499;28;20726;-74
2022/03/04 10:46:00;;;;;;;12.13;8.32;;;7.80;99.90;;;;;;5051833;28;20209;-76
2022/03/04 10:48:27;;;;;;;15.50;7.07;;;7.90;99.90;;;;;;5055350;28;20203;-71
2022/03/04 10:50:57;;;;;;;10.43;6.95;;;8.30;99.90;;;;;;5050985;28;20268;-72
2022/03/04 10:53:25;;;;;;;13.18;8.35;;;8.80;99.90;;;;;;5057341;28;20299;-75
2022/03/04 10:55:55;;;;;;;13.18;7.88;;;9.00;99.90;;;;;;5056042;28;20290;-73
2022/03/04 10:58:24;;;;;;;13.88;7.97;;;8.90;99.90;;;;;;5055545;28;20209;-73
2022/03/04 11:00:53;;;;;;;17.13;9.32;;;9.50;99.90;;;;;;5055341;28;20290;-73
2022/03/04 11:03:22;;;;;;;13.63;8.65;;;9.90;99.60;;;;;;5055623;28;20232;-76
2022/03/04 11:05:52;;;;;;;13.32;7.95;;;10.20;98.20;;;;;;5055583;28;20207;-73
2022/03/04 11:08:21;;;;;;;13.00;9.02;;;10.10;97.00;;;;;;5055693;28;20734;-74
2022/03/04 11:10:49;;;;;;;13.00;8.45;;;10.10;97.30;;;;;;5055693;28;20210;-71
2022/03/04 11:13:17;;;;;;;14.02;9.15;;;9.90;97.60;;;;;;5049878;28;20553;-72
2022/03/04 11:15:46;;;;;;;13.10;8.60;;;9.90;97.60;;;;;;5055316;28;20629;-74
2022/03/04 11:18:14;;;;;;;13.05;9.13;;;9.90;97.70;;;;;;5055905;28;20203;-73
2022/03/04 11:20:42;;;;;;;12.85;8.20;;;9.70;97.90;;;;;;5054714;28;20214;-74
2022/03/04 11:23:11;;;;;;;10.98;7.60;;;9.60;97.80;;;;;;5048814;28;20208;-73
2022/03/04 11:25:42;;;;;;;14.13;8.98;;;8.90;99.00;;;;;;5054849;28;20221;-75
2022/03/04 11:28:11;;;;;;;13.23;7.78;;;8.50;99.90;;;;;;5060408;28;20286;-71
2022/03/04 11:30:44;;;;;;;12.60;8.07;;;8.30;99.90;;;;;;5054123;28;20263;-73
2022/03/04 11:33:19;;;;;;;13.02;7.50;;;8.50;99.90;;;;;;5062316;28;20207;-73
2022/03/04 11:36:09;;;;;;;14.20;8.52;;;8.40;99.90;;;;;;5058553;28;20258;-74
2022/03/04 11:39:15;;;;;;;14.02;8.05;;;8.10;99.90;;;;;;5055264;28;20620;-72
2022/03/04 11:42:11;;;;;;;15.05;8.70;;;8.10;99.90;;;;;;5054502;28;20317;-72
2022/03/04 11:45:02;;;;;;;12.70;8.90;;;8.00;99.90;;;;;;5054117;28;20234;-71
2022/03/04 11:47:38;;;;;;;11.43;7.43;;;8.00;99.90;;;;;;5046899;28;20330;-70
2022/03/04 11:50:30;;;;;;;9.38;7.45;;;8.00;99.90;;;;;;5053304;28;20214;-73
2022/03/04 11:53:16;;;;;;;14.60;7.22;;;8.00;99.90;;;;;;5055233;28;20313;-72
2022/03/04 11:56:11;;;;;;;12.15;7.63;;;8.00;99.90;;;;;;5054796;28;20230;-74
2022/03/04 11:59:07;;;;;;;20.60;7.88;;;8.10;99.90;;;;;;5054394;28;20207;-72
2022/03/04 12:01:37;;;;;;;15.70;7.30;;;8.30;99.90;;;;;;5047741;28;20234;-72
2022/03/04 12:04:09;;;;;;;13.93;7.78;;;8.00;99.90;;;;;;5053436;28;20298;-72
2022/03/04 12:06:37;;;;;;;14.98;7.80;;;8.10;99.90;;;;;;5055171;28;20238;-74
2022/03/04 12:09:26;;;;;;;13.00;7.70;;;7.80;99.90;;;;;;5053895;28;20206;-72
2022/03/04 12:12:12;;;;;;;11.25;7.22;;;7.60;99.90;;;;;;5054200;28;20230;-70
2022/03/04 12:14:46;;;;;;;15.63;7.50;;;7.90;99.90;;;;;;5054692;28;20309;-70
2022/03/04 12:17:15;;;;;;;14.27;8.45;;;7.80;99.90;;;;;;5054812;28;20266;-73
2022/03/04 12:19:43;;;;;;;11.32;7.25;;;7.70;99.90;;;;;;5053503;28;20202;-74
2022/03/04 12:22:13;;;;;;;19.38;9.32;;;7.70;99.90;;;;;;5054017;28;20724;-73
2022/03/04 12:24:51;;;;;;;15.00;9.00;;;7.60;99.90;;;;;;5051258;28;20202;-71
2022/03/04 12:27:39;;;;;;;14.15;8.00;;;7.60;99.90;;;;;;5054479;28;20574;-73
2022/03/04 12:30:17;;;;;;;11.88;8.20;;;7.50;99.90;;;;;;5053618;28;20290;-74
2022/03/04 12:32:50;;;;;;;12.43;7.45;;;7.60;99.90;;;;;;5053026;28;20258;-71
2022/03/04 12:35:18;;;;;;;11.57;7.07;;;7.50;99.90;;;;;;5053872;28;20253;-73
2022/03/04 12:37:46;;;;;;;10.48;7.97;;;7.30;99.90;;;;;;5053762;28;20241;-73
2022/03/04 12:40:14;;;;;;;13.80;7.85;;;7.40;99.90;;;;;;5053307;28;20219;-72
2022/03/04 12:42:41;;;;;;;10.88;6.43;;;7.30;99.90;;;;;;5050963;28;20226;-73
2022/03/04 12:45:09;;;;;;;11.65;7.45;;;7.40;99.90;;;;;;5054159;28;20308;-75
2022/03/04 12:47:38;;;;;;;15.32;7.60;;;7.40;99.90;;;;;;5050377;28;20226;-73
2022/03/04 12:50:07;;;;;;;11.18;8.48;;;7.40;99.90;;;;;;5053545;28;20202;-75